PDT,Max TemperatureF,Mean TemperatureF,Min TemperatureF,Max Dew PointF,MeanDew PointF,Min DewpointF,Max Humidity, Mean Humidity, Min Humidity, Max Sea Level PressureIn, Mean Sea Level PressureIn, Min Sea Level PressureIn, Max VisibilityMiles, Mean VisibilityMiles, Min VisibilityMiles, Max Wind SpeedMPH, Mean Wind SpeedMPH, Max Gust SpeedMPH,PrecipitationIn, CloudCover, Events, WindDirDegrees
2012-7-1,81,71,60,60,57,53,90,69,48,29.93,29.87,29.81,10,10,8,14,6,18,0.00,5,,173
2012-7-2,85,69,53,58,53,49,93,65,37,29.87,29.83,29.78,10,8,0,17,5,20,T,2,Fog,168
2012-7-3,88,68,48,53,50,46,93,61,29,29.87,29.81,29.75,10,10,8,13,4,17,0.00,0,Fog,172
2012-7-4,80,65,50,54,50,47,83,61,38,29.83,29.80,29.78,10,10,8,16,5,18,0.00,0,,172
2012-7-5,80,64,47,51,48,44,93,64,35,29.94,29.90,29.85,10,9,4,16,5,20,0.00,2,,153
2012-7-6,86,66,45,53,48,43,93,62,31,29.99,29.96,29.91,10,8,1,15,4,17,T,1,Fog,163
2012-7-7,92,65,38,52,48,44,93,58,23,29.96,29.93,29.88,10,10,10,14,5,17,0.00,0,,161
2012-7-8,84,67,49,52,49,46,100,64,28,30.01,29.97,29.93,10,6,0,15,6,18,0.00,2,Fog-Rain,158
2012-7-9,87,70,52,58,51,49,96,65,34,30.04,29.97,29.90,10,8,2,14,4,16,T,4,,149
2012-7-10,95,71,46,54,49,45,100,62,24,29.95,29.89,29.78,10,6,0,12,4,14,0.00,2,Fog,168
2012-7-11,96,73,50,56,51,47,89,57,24,29.85,29.81,29.75,10,9,6,12,4,15,T,0,,162
2012-7-12,92,71,49,57,51,47,89,59,29,29.82,29.78,29.73,10,10,7,15,5,17,0.00,0,Rain,165
2012-7-13,77,62,47,52,49,46,93,68,43,29.88,29.84,29.80,10,7,0,18,7,23,0.00,3,Fog,159
2012-7-14,77,65,53,54,51,50,89,69,49,29.94,29.88,29.84,10,10,5,16,5,20,T,4,,171
2012-7-15,76,64,52,55,51,49,96,73,49,29.91,29.86,29.80,10,9,3,16,6,20,T,5,Rain,175
2012-7-16,68,60,51,52,50,49,96,75,53,29.89,29.84,29.81,10,8,2,16,5,22,T,6,,190
2012-7-17,66,59,52,54,52,49,86,75,63,29.98,29.93,29.86,10,10,7,12,4,16,0.00,7,,188
2012-7-18,75,62,48,53,50,46,100,73,46,30.02,29.98,29.93,10,7,1,14,4,18,0.00,4,,162
2012-7-19,77,66,54,54,53,51,93,70,46,30.03,29.99,29.95,10,9,1,13,3,22,0.00,4,Rain,183
2012-7-20,92,71,50,55,53,48,100,63,26,30.07,30.01,29.93,10,8,0,12,4,14,T,2,Fog,187
2012-7-21,96,75,53,57,53,50,93,59,24,29.96,29.90,29.82,10,10,10,15,4,18,0.00,0,,179
2012-7-22,91,71,50,56,52,48,89,59,29,29.88,29.84,29.78,10,9,6,13,5,17,0.00,0,,165
2012-7-23,81,67,52,54,51,49,93,66,39,29.92,29.88,29.85,10,9,6,14,4,17,0.00,1,,188
2012-7-24,76,65,53,53,51,50,89,66,43,29.98,29.93,29.90,10,10,7,14,6,20,0.00,4,,197
2012-7-25,75,65,54,53,51,50,86,66,46,29.99,29.95,29.91,10,10,10,7,6,9,0.00,4,,193
2012-7-26,72,62,52,52,50,48,96,75,53,30.00,29.95,29.91,10,10,5,15,6,18,0.00,5,Rain,176
2012-7-27,77,64,51,55,51,48,96,70,43,30.01,29.97,29.93,10,10,5,14,5,16,0.00,4,,156
2012-7-28,87,70,52,55,52,50,100,65,30,30.04,29.99,29.91,10,6,0,13,4,15,0.00,4,Fog,181
2012-7-29,85,68,50,55,52,48,100,66,32,30.03,29.97,29.90,10,6,0,14,5,17,0.00,3,Fog,178
2012-7-30,95,72,49,56,52,48,93,59,24,29.96,29.90,29.82,10,10,9,14,4,17,0.00,0,,176
2012-7-31,90,70,49,53,50,47,93,60,27,29.95,29.91,29.88,10,10,7,14,4,16,0.00,1,,170